Time;durP1;ratioP1;P1;durP2;ratioP2;P2;SDS_P1;SDS_P2;PMS_P1;PMS_P2;Temp;Humidity;BMP_temperature;BMP_pressure;BME280_temperature;BME280_humidity;BME280_pressure;Samples;Min_cycle;Max_cycle;Signal;HPM_P1;HPM_P2
2023/07/11 00:02:09;;;;;;;3.67;2.42;;;23.60;94.30;;;;;;5027404;28;20239;-26
2023/07/11 00:04:37;;;;;;;4.18;2.63;;;23.60;94.40;;;;;;5029551;28;20205;-27
2023/07/11 00:07:04;;;;;;;4.72;2.30;;;23.50;94.40;;;;;;5027735;28;20235;-27
2023/07/11 00:09:31;;;;;;;3.78;2.70;;;23.50;94.40;;;;;;5027554;28;20251;-26
2023/07/11 00:11:58;;;;;;;4.25;2.67;;;23.50;94.50;;;;;;5025720;28;20239;-26
2023/07/11 00:14:26;;;;;;;5.55;2.78;;;23.50;94.50;;;;;;5025591;28;20204;-27
2023/07/11 00:16:55;;;;;;;4.38;2.38;;;23.40;94.40;;;;;;5026261;28;20282;-27
2023/07/11 00:19:22;;;;;;;4.50;2.15;;;23.40;94.50;;;;;;5027378;28;20747;-27
2023/07/11 00:21:49;;;;;;;3.67;2.30;;;23.30;94.50;;;;;;5027468;28;20617;-30
2023/07/11 00:24:21;;;;;;;4.32;2.53;;;23.30;94.60;;;;;;5027847;28;20687;-31
2023/07/11 00:26:48;;;;;;;3.05;2.25;;;23.30;94.60;;;;;;5025827;28;20287;-30
2023/07/11 00:29:24;;;;;;;4.03;2.25;;;23.30;94.50;;;;;;5026546;28;20244;-30
2023/07/11 00:31:53;;;;;;;3.30;2.40;;;23.30;94.70;;;;;;5027788;28;20446;-30
2023/07/11 00:34:23;;;;;;;5.43;2.38;;;23.20;94.60;;;;;;5026383;28;20255;-27
2023/07/11 00:36:50;;;;;;;3.50;2.10;;;23.20;94.70;;;;;;5026763;28;20265;-26
2023/07/11 00:39:19;;;;;;;2.92;1.95;;;23.20;94.70;;;;;;5025528;28;20232;-26
2023/07/11 00:41:46;;;;;;;4.18;2.13;;;23.20;94.70;;;;;;5025566;28;20204;-26
2023/07/11 00:44:17;;;;;;;3.22;2.03;;;23.20;94.70;;;;;;5025079;28;20270;-26
2023/07/11 00:46:46;;;;;;;6.47;2.00;;;23.10;94.70;;;;;;5024999;28;20247;-26
2023/07/11 00:49:19;;;;;;;3.53;2.05;;;23.10;94.80;;;;;;5041854;28;20625;-26
2023/07/11 00:51:56;;;;;;;3.95;2.00;;;23.10;95.00;;;;;;5026917;28;20219;-26
2023/07/11 00:54:31;;;;;;;1.92;1.70;;;23.10;94.90;;;;;;5025858;28;20228;-26
2023/07/11 00:57:02;;;;;;;4.72;2.05;;;23.00;94.90;;;;;;5025248;28;20643;-26
2023/07/11 00:59:33;;;;;;;4.18;1.88;;;23.00;95.00;;;;;;5034835;28;20238;-26
2023/07/11 01:02:04;;;;;;;3.58;2.00;;;23.00;95.00;;;;;;5044876;28;20207;-26
2023/07/11 01:04:35;;;;;;;3.67;1.92;;;23.00;95.20;;;;;;5037726;28;20258;-27
2023/07/11 01:07:04;;;;;;;2.25;2.00;;;22.90;95.10;;;;;;5034453;28;20273;-31
2023/07/11 01:09:31;;;;;;;3.80;2.45;;;22.90;95.20;;;;;;5040658;28;20239;-30
2023/07/11 01:12:01;;;;;;;2.72;2.10;;;22.90;95.20;;;;;;5044823;28;20197;-30
2023/07/11 01:14:29;;;;;;;3.53;2.22;;;22.90;95.20;;;;;;5037819;28;20224;-31
2023/07/11 01:16:57;;;;;;;4.65;2.45;;;22.80;95.20;;;;;;5032231;28;20701;-30
2023/07/11 01:19:25;;;;;;;3.10;2.00;;;22.80;95.20;;;;;;5046362;28;20216;-30
2023/07/11 01:21:52;;;;;;;3.22;2.30;;;22.80;95.20;;;;;;5030758;28;20964;-31
2023/07/11 01:24:22;;;;;;;4.00;2.22;;;22.80;95.20;;;;;;5041336;28;20568;-30
2023/07/11 01:26:49;;;;;;;3.45;2.22;;;22.70;95.20;;;;;;5042288;28;20216;-30
2023/07/11 01:29:16;;;;;;;3.85;2.30;;;22.70;95.30;;;;;;5040910;28;20197;-30
2023/07/11 01:31:43;;;;;;;2.45;1.80;;;22.70;95.30;;;;;;5025443;28;20642;-30
2023/07/11 01:34:13;;;;;;;2.80;2.10;;;22.70;95.30;;;;;;5025765;28;20193;-30
2023/07/11 01:36:40;;;;;;;4.05;2.38;;;22.70;95.40;;;;;;5025679;28;20607;-30
2023/07/11 01:39:10;;;;;;;3.63;2.20;;;22.60;95.30;;;;;;5024967;28;20256;-30
2023/07/11 01:41:37;;;;;;;4.63;2.35;;;22.60;95.40;;;;;;5034741;28;20286;-31
2023/07/11 01:44:08;;;;;;;3.47;2.40;;;22.60;95.40;;;;;;5045782;28;20743;-30
2023/07/11 01:46:42;;;;;;;2.20;1.80;;;22.60;95.40;;;;;;5029951;28;20730;-30
2023/07/11 01:49:12;;;;;;;3.88;1.98;;;22.50;95.40;;;;;;5028898;28;20197;-30
2023/07/11 01:51:43;;;;;;;3.92;2.20;;;22.50;95.40;;;;;;5045172;28;20765;-29
2023/07/11 01:54:14;;;;;;;4.22;2.20;;;22.50;95.50;;;;;;5041083;28;20216;-30
2023/07/11 01:56:44;;;;;;;4.60;2.60;;;22.40;95.50;;;;;;5030083;28;20232;-30
2023/07/11 01:59:13;;;;;;;4.65;2.22;;;22.40;95.50;;;;;;5030214;28;20258;-30
2023/07/11 02:01:43;;;;;;;3.25;2.00;;;22.40;95.50;;;;;;5028732;28;20252;-30
2023/07/11 02:04:10;;;;;;;6.18;2.38;;;22.40;95.60;;;;;;5028399;28;20267;-30
2023/07/11 02:06:40;;;;;;;3.08;1.92;;;22.30;95.50;;;;;;5028522;28;20236;-30
2023/07/11 02:09:07;;;;;;;4.75;2.35;;;22.40;95.60;;;;;;5028347;28;20271;-30
2023/07/11 02:11:36;;;;;;;3.80;2.10;;;22.30;95.60;;;;;;5030148;28;20219;-26
2023/07/11 02:14:03;;;;;;;3.42;2.05;;;22.30;95.60;;;;;;5030277;28;20741;-26
2023/07/11 02:16:33;;;;;;;3.92;2.08;;;22.30;95.70;;;;;;5028659;28;20212;-26
2023/07/11 02:19:03;;;;;;;2.53;1.95;;;22.20;95.70;;;;;;5030022;28;20209;-26
2023/07/11 02:21:32;;;;;;;3.58;2.42;;;22.20;95.70;;;;;;5028447;28;20203;-26
2023/07/11 02:24:01;;;;;;;3.13;1.90;;;22.20;95.70;;;;;;5029417;28;20287;-26
2023/07/11 02:26:29;;;;;;;5.10;2.30;;;22.20;95.70;;;;;;5029432;28;20713;-26
2023/07/11 02:29:03;;;;;;;3.03;2.13;;;22.10;95.70;;;;;;5030078;28;20199;-26
2023/07/11 02:31:32;;;;;;;4.72;2.42;;;22.10;95.80;;;;;;5029278;28;20208;-26
2023/07/11 02:34:00;;;;;;;3.35;2.42;;;22.10;95.80;;;;;;5029309;28;20254;-26
2023/07/11 02:36:30;;;;;;;3.17;2.40;;;22.00;95.70;;;;;;5029206;28;20216;-26
2023/07/11 02:39:02;;;;;;;6.15;2.53;;;22.00;95.80;;;;;;5027614;28;20271;-26
2023/07/11 02:41:29;;;;;;;3.22;2.20;;;21.90;95.80;;;;;;5028070;28;20574;-26
2023/07/11 02:43:58;;;;;;;5.57;2.55;;;21.90;95.80;;;;;;5029190;28;20229;-26
2023/07/11 02:46:26;;;;;;;3.50;2.40;;;21.90;95.80;;;;;;5027698;28;20571;-26
2023/07/11 02:48:54;;;;;;;4.13;2.85;;;21.90;95.80;;;;;;5038070;28;20193;-27
2023/07/11 02:51:27;;;;;;;5.63;2.60;;;21.80;95.80;;;;;;5047758;28;20638;-26
2023/07/11 02:53:54;;;;;;;6.43;2.70;;;21.80;95.90;;;;;;5034701;28;20204;-26
2023/07/11 02:56:22;;;;;;;3.25;2.60;;;21.70;95.90;;;;;;5026451;28;20209;-26
2023/07/11 02:58:51;;;;;;;3.67;2.80;;;21.70;95.90;;;;;;5028651;28;20288;-26
2023/07/11 03:01:21;;;;;;;5.45;2.72;;;21.70;95.90;;;;;;5028871;28;20215;-26
2023/07/11 03:03:54;;;;;;;4.97;2.60;;;21.70;95.90;;;;;;5028636;28;20213;-27
2023/07/11 03:06:29;;;;;;;4.50;2.88;;;21.60;95.90;;;;;;5040269;28;20204;-26
2023/07/11 03:08:56;;;;;;;3.65;2.47;;;21.60;95.90;;;;;;5028770;28;20274;-26
2023/07/11 03:11:23;;;;;;;4.25;2.55;;;21.60;95.90;;;;;;5028681;28;20213;-26
2023/07/11 03:13:53;;;;;;;3.30;2.33;;;21.60;96.00;;;;;;5027407;28;20200;-26
2023/07/11 03:16:20;;;;;;;2.78;2.20;;;21.60;96.00;;;;;;5028651;28;20205;-26
2023/07/11 03:18:52;;;;;;;3.85;2.20;;;21.50;96.00;;;;;;5045587;28;20251;-26
2023/07/11 03:21:22;;;;;;;4.72;2.35;;;21.50;96.00;;;;;;5043142;28;20220;-30
2023/07/11 03:23:57;;;;;;;3.83;2.30;;;21.50;96.00;;;;;;5028963;28;20663;-30
2023/07/11 03:26:27;;;;;;;5.07;2.70;;;21.50;96.10;;;;;;5028365;28;20247;-31
2023/07/11 03:28:54;;;;;;;3.78;2.25;;;21.50;96.10;;;;;;5027980;28;20292;-31
2023/07/11 03:31:23;;;;;;;3.72;2.53;;;21.50;96.20;;;;;;5028102;28;20246;-30
2023/07/11 03:33:53;;;;;;;3.53;2.65;;;21.40;96.20;;;;;;5028705;28;20774;-30
2023/07/11 03:36:25;;;;;;;5.93;2.72;;;21.40;96.20;;;;;;5026543;28;20285;-30
2023/07/11 03:38:52;;;;;;;5.68;3.00;;;21.40;96.30;;;;;;5026428;28;20240;-30
2023/07/11 03:41:19;;;;;;;4.88;2.90;;;21.40;96.20;;;;;;5026931;28;20847;-30
2023/07/11 03:43:49;;;;;;;4.75;2.67;;;21.30;96.20;;;;;;5045786;28;20254;-30
2023/07/11 03:46:16;;;;;;;3.97;2.55;;;21.30;96.30;;;;;;5046418;28;20637;-30
2023/07/11 03:48:45;;;;;;;3.63;3.00;;;21.30;96.30;;;;;;5047937;28;20224;-30
2023/07/11 03:51:12;;;;;;;3.88;2.78;;;21.30;96.30;;;;;;5047933;28;20267;-30
2023/07/11 03:53:42;;;;;;;3.15;2.40;;;21.20;96.30;;;;;;5031379;28;20621;-30
2023/07/11 03:56:14;;;;;;;5.60;2.47;;;21.20;96.30;;;;;;5026717;28;20294;-30
2023/07/11 03:58:46;;;;;;;3.22;2.20;;;21.20;96.30;;;;;;5026736;28;20217;-30
2023/07/11 04:01:17;;;;;;;3.20;2.28;;;21.20;96.30;;;;;;5027558;28;20721;-30
2023/07/11 04:03:44;;;;;;;3.38;2.35;;;21.20;96.30;;;;;;5027499;28;20215;-31
2023/07/11 04:06:12;;;;;;;6.47;2.45;;;21.20;96.30;;;;;;5027555;28;20233;-30
2023/07/11 04:08:40;;;;;;;3.58;2.15;;;21.20;96.30;;;;;;5028064;28;20220;-30
2023/07/11 04:11:07;;;;;;;3.35;2.22;;;21.10;96.20;;;;;;5026033;28;20279;-30
2023/07/11 04:13:34;;;;;;;5.13;2.55;;;21.20;96.30;;;;;;5026326;28;20331;-30
2023/07/11 04:16:02;;;;;;;4.65;2.30;;;21.10;96.30;;;;;;5025961;28;20266;-30
2023/07/11 04:18:29;;;;;;;3.50;2.50;;;21.10;96.30;;;;;;5026017;28;20239;-30
2023/07/11 04:20:58;;;;;;;3.90;2.47;;;21.10;96.30;;;;;;5026017;28;20197;-30
2023/07/11 04:23:28;;;;;;;3.88;2.33;;;21.10;96.30;;;;;;5027913;28;20258;-30
2023/07/11 04:25:57;;;;;;;4.80;2.50;;;21.10;96.40;;;;;;5026102;28;20209;-31
2023/07/11 04:28:24;;;;;;;3.70;2.22;;;21.10;96.40;;;;;;5027373;28;20229;-30
2023/07/11 04:30:54;;;;;;;5.10;2.17;;;21.10;96.40;;;;;;5027665;28;20217;-31
2023/07/11 04:33:24;;;;;;;4.32;1.90;;;21.10;96.40;;;;;;5027044;28;20216;-30
2023/07/11 04:35:54;;;;;;;6.22;2.47;;;21.10;96.50;;;;;;5025735;28;20200;-30
2023/07/11 04:38:25;;;;;;;5.05;2.85;;;21.10;96.60;;;;;;5028020;28;20233;-31
2023/07/11 04:40:53;;;;;;;7.32;2.40;;;21.10;96.50;;;;;;5025324;28;20224;-30
2023/07/11 04:43:24;;;;;;;4.00;2.30;;;21.10;96.50;;;;;;5027145;28;20211;-30
2023/07/11 04:45:57;;;;;;;4.93;2.42;;;21.10;96.50;;;;;;5026939;28;20254;-30
2023/07/11 04:48:25;;;;;;;3.95;2.38;;;21.10;96.60;;;;;;5029419;28;20726;-31
2023/07/11 04:51:03;;;;;;;5.70;2.50;;;21.10;96.60;;;;;;5030837;28;20633;-26
2023/07/11 04:53:34;;;;;;;4.93;2.45;;;21.10;96.70;;;;;;5026956;28;20207;-26
2023/07/11 04:56:09;;;;;;;4.22;2.40;;;21.10;96.60;;;;;;5026905;28;20548;-26
2023/07/11 04:58:36;;;;;;;5.47;2.90;;;21.20;96.70;;;;;;5027138;28;20216;-26
2023/07/11 05:01:13;;;;;;;4.20;2.38;;;21.10;96.60;;;;;;5024675;28;20605;-27
2023/07/11 05:03:40;;;;;;;4.18;2.58;;;21.20;96.70;;;;;;5032385;28;20204;-26
2023/07/11 05:06:14;;;;;;;6.10;2.30;;;21.20;96.70;;;;;;5032260;28;20671;-26
2023/07/11 05:08:43;;;;;;;3.40;2.15;;;21.20;96.70;;;;;;5044232;28;20251;-26
2023/07/11 05:11:13;;;;;;;4.30;2.30;;;21.20;96.70;;;;;;5034196;28;20196;-27
2023/07/11 05:13:42;;;;;;;4.53;1.83;;;21.20;96.80;;;;;;5030192;28;20725;-27
2023/07/11 05:16:15;;;;;;;4.05;2.38;;;21.30;96.80;;;;;;5027849;28;20287;-27
2023/07/11 05:18:46;;;;;;;4.45;2.30;;;21.30;96.80;;;;;;5035210;28;20633;-26
2023/07/11 05:21:18;;;;;;;4.30;2.33;;;21.30;96.80;;;;;;5050154;28;20285;-27
2023/07/11 05:23:48;;;;;;;4.50;2.35;;;21.40;96.90;;;;;;5047306;28;20222;-27
2023/07/11 05:26:18;;;;;;;7.82;2.88;;;21.40;96.90;;;;;;5044581;28;20196;-27
2023/07/11 05:28:48;;;;;;;5.07;2.40;;;21.40;96.90;;;;;;5048989;28;20236;-27
2023/07/11 05:31:18;;;;;;;4.85;2.40;;;21.50;96.90;;;;;;5048681;28;20231;-27
2023/07/11 05:33:46;;;;;;;7.82;2.70;;;21.60;97.00;;;;;;5047803;28;20216;-27
2023/07/11 05:39:10;;;;;;;8.02;3.22;;;21.70;97.10;;;;;;5050381;28;20319;-27
2023/07/11 05:41:47;;;;;;;6.18;2.50;;;21.70;97.10;;;;;;5048768;28;20204;-26
2023/07/11 05:44:18;;;;;;;6.93;2.42;;;21.80;97.10;;;;;;5026367;28;20632;-26
2023/07/11 05:46:45;;;;;;;5.57;2.63;;;21.80;97.10;;;;;;5031590;28;20243;-27
2023/07/11 05:49:15;;;;;;;5.63;2.97;;;21.90;97.20;;;;;;5024336;28;20251;-26
2023/07/11 05:51:44;;;;;;;7.30;2.30;;;22.00;97.20;;;;;;5030449;28;20215;-26
2023/07/11 05:54:14;;;;;;;4.47;2.45;;;22.00;97.20;;;;;;5041020;28;20205;-26
2023/07/11 05:56:46;;;;;;;5.60;2.50;;;22.10;97.30;;;;;;5027127;28;20201;-26
2023/07/11 05:59:13;;;;;;;10.13;2.55;;;22.20;97.30;;;;;;5036509;28;20208;-26
2023/07/11 06:01:42;;;;;;;6.43;2.60;;;22.30;97.30;;;;;;5040830;28;20671;-26
2023/07/11 06:04:12;;;;;;;4.50;2.13;;;22.30;97.30;;;;;;5030632;28;20671;-26
2023/07/11 06:06:43;;;;;;;5.65;2.20;;;22.40;97.40;;;;;;5045907;28;20230;-26
2023/07/11 06:09:16;;;;;;;3.38;2.20;;;22.50;97.40;;;;;;5036695;28;20339;-26
2023/07/11 06:11:48;;;;;;;7.90;2.67;;;22.50;97.40;;;;;;5038517;28;20204;-30
2023/07/11 06:14:17;;;;;;;3.63;2.45;;;22.60;97.50;;;;;;5045082;28;20240;-30
2023/07/11 06:16:49;;;;;;;4.40;2.20;;;22.60;97.50;;;;;;5054999;28;20262;-30
2023/07/11 06:19:22;;;;;;;7.25;2.70;;;22.70;97.80;;;;;;5055072;28;20294;-30
2023/07/11 06:21:49;;;;;;;5.97;2.50;;;22.70;97.50;;;;;;5034401;28;20223;-30
2023/07/11 06:24:19;;;;;;;5.43;3.03;;;22.80;97.50;;;;;;5040471;28;20203;-30
2023/07/11 06:26:51;;;;;;;6.60;2.50;;;22.90;97.60;;;;;;5036642;28;20306;-30
2023/07/11 06:29:18;;;;;;;4.32;2.40;;;22.90;97.60;;;;;;5038771;28;20700;-30
2023/07/11 06:31:46;;;;;;;4.07;2.78;;;23.00;97.60;;;;;;5027145;28;20298;-30
2023/07/11 06:34:17;;;;;;;5.18;2.58;;;23.00;97.60;;;;;;5038117;28;20200;-30
2023/07/11 06:36:49;;;;;;;5.78;2.60;;;23.10;97.70;;;;;;5048151;28;20200;-30
2023/07/11 06:39:16;;;;;;;4.75;2.47;;;23.10;97.70;;;;;;5042893;28;20233;-30
2023/07/11 06:41:46;;;;;;;6.90;2.80;;;23.20;97.60;;;;;;5038853;28;20231;-30
2023/07/11 06:44:13;;;;;;;6.07;2.53;;;23.20;97.70;;;;;;5036068;28;20296;-30
2023/07/11 06:46:45;;;;;;;5.15;2.70;;;23.30;97.60;;;;;;5034720;28;20217;-30
2023/07/11 06:49:18;;;;;;;4.30;2.63;;;23.30;97.70;;;;;;5027987;28;20258;-30
2023/07/11 06:51:45;;;;;;;6.15;2.53;;;23.40;97.70;;;;;;5043321;28;20212;-30
2023/07/11 06:54:17;;;;;;;6.47;2.33;;;23.50;97.80;;;;;;5048112;28;20682;-26
2023/07/11 06:56:47;;;;;;;7.13;3.00;;;23.50;97.80;;;;;;5037181;28;20253;-26
2023/07/11 06:59:23;;;;;;;5.88;2.70;;;23.60;97.80;;;;;;5038659;28;20235;-26
2023/07/11 07:01:50;;;;;;;5.32;2.72;;;23.60;97.90;;;;;;5045280;28;20215;-26
2023/07/11 07:04:20;;;;;;;5.05;2.35;;;23.70;97.80;;;;;;5047186;28;20231;-26
2023/07/11 07:06:49;;;;;;;4.85;2.53;;;23.70;97.80;;;;;;5032564;28;20232;-26
2023/07/11 07:09:18;;;;;;;3.58;2.22;;;23.80;97.90;;;;;;5028302;28;20226;-26
2023/07/11 07:11:48;;;;;;;5.57;2.30;;;23.80;97.90;;;;;;5031027;28;20277;-26
2023/07/11 07:14:15;;;;;;;6.63;2.92;;;23.90;97.90;;;;;;5045186;28;20243;-25
2023/07/11 07:16:42;;;;;;;5.85;2.80;;;24.00;98.20;;;;;;5036024;28;20212;-25
2023/07/11 07:19:18;;;;;;;4.22;2.20;;;24.00;98.00;;;;;;5026375;28;20236;-25
2023/07/11 07:21:48;;;;;;;5.50;2.28;;;24.10;98.00;;;;;;5030405;28;20223;-27
2023/07/11 07:24:15;;;;;;;5.60;2.50;;;24.20;98.10;;;;;;5047757;28;20722;-26
2023/07/11 07:26:43;;;;;;;8.65;2.50;;;24.30;98.10;;;;;;5047668;28;20204;-26
2023/07/11 07:29:17;;;;;;;8.60;2.88;;;24.30;98.20;;;;;;5045747;28;20330;-26
2023/07/11 07:31:50;;;;;;;10.00;2.75;;;24.40;98.20;;;;;;5042301;28;20208;-30
2023/07/11 07:34:19;;;;;;;6.22;2.53;;;24.50;98.30;;;;;;5041772;28;20226;-26
2023/07/11 07:36:49;;;;;;;10.57;2.90;;;24.50;98.20;;;;;;5045240;28;20204;-26
2023/07/11 07:39:18;;;;;;;4.47;2.38;;;24.60;98.30;;;;;;5044979;28;20248;-26
2023/07/11 07:41:45;;;;;;;5.40;2.40;;;24.70;98.30;;;;;;5042190;28;20220;-26
2023/07/11 07:44:13;;;;;;;4.97;2.55;;;24.70;98.20;;;;;;5027605;28;20679;-26
2023/07/11 07:46:40;;;;;;;5.63;2.47;;;24.80;98.30;;;;;;5039909;28;20200;-26
2023/07/11 07:49:10;;;;;;;5.25;2.30;;;24.90;98.40;;;;;;5038724;28;20224;-26
2023/07/11 07:51:45;;;;;;;5.28;2.38;;;24.90;98.40;;;;;;5035685;28;20302;-26
2023/07/11 07:54:13;;;;;;;5.47;2.30;;;25.00;98.40;;;;;;5046728;28;20208;-26
2023/07/11 07:56:44;;;;;;;9.43;2.85;;;25.10;98.50;;;;;;5027606;28;20557;-26
2023/07/11 07:59:14;;;;;;;5.93;2.38;;;25.20;98.40;;;;;;5027404;28;20213;-26
2023/07/11 08:01:45;;;;;;;3.90;2.42;;;25.20;98.40;;;;;;5027838;28;20216;-30
2023/07/11 08:04:13;;;;;;;3.88;2.38;;;25.30;98.50;;;;;;5041972;28;20216;-30
2023/07/11 08:06:45;;;;;;;5.22;2.33;;;25.30;98.50;;;;;;5043676;28;20281;-30
2023/07/11 08:09:12;;;;;;;6.60;2.67;;;25.40;98.60;;;;;;5032858;28;20236;-30
2023/07/11 08:11:43;;;;;;;4.72;2.58;;;25.50;98.80;;;;;;5044298;28;20694;-30
2023/07/11 08:14:13;;;;;;;5.90;2.10;;;25.60;98.50;;;;;;5026567;28;20538;-30
2023/07/11 08:16:40;;;;;;;4.82;2.60;;;25.60;98.50;;;;;;5037595;28;20343;-30
2023/07/11 08:19:12;;;;;;;3.78;2.20;;;25.70;98.50;;;;;;5023831;28;20216;-26
2023/07/11 08:21:41;;;;;;;5.45;2.75;;;25.70;98.60;;;;;;5029898;28;20204;-26
2023/07/11 08:24:09;;;;;;;4.75;2.47;;;25.80;98.60;;;;;;5031337;28;20236;-26
2023/07/11 08:26:36;;;;;;;5.20;2.45;;;25.80;98.60;;;;;;5028060;28;20225;-25
2023/07/11 08:29:05;;;;;;;5.35;2.50;;;25.90;98.60;;;;;;5026926;28;20972;-25
2023/07/11 08:31:50;;;;;;;2.97;2.08;;;25.90;98.60;;;;;;5035183;28;20208;-25
2023/07/11 08:34:18;;;;;;;5.25;2.08;;;26.00;98.60;;;;;;5043095;28;20768;-25
2023/07/11 08:36:50;;;;;;;5.50;2.10;;;26.00;98.60;;;;;;5046211;28;20220;-25
2023/07/11 08:39:22;;;;;;;4.95;2.50;;;26.10;98.60;;;;;;5041184;28;20240;-25
2023/07/11 08:41:55;;;;;;;7.10;2.25;;;26.10;98.60;;;;;;5029476;28;20600;-25
2023/07/11 08:45:03;;;;;;;6.22;2.20;;;26.10;98.50;;;;;;5028675;28;20219;-25
2023/07/11 08:47:39;;;;;;;5.93;2.45;;;26.20;98.60;;;;;;5039291;28;20212;-25
2023/07/11 08:50:34;;;;;;;5.25;2.13;;;26.20;98.60;;;;;;5034748;28;20224;-25
2023/07/11 08:53:18;;;;;;;4.18;2.50;;;26.30;98.60;;;;;;5031697;28;20313;-26
2023/07/11 08:55:51;;;;;;;8.15;2.30;;;26.30;98.60;;;;;;5042021;28;20208;-25
2023/07/11 08:58:25;;;;;;;5.60;2.60;;;26.40;98.60;;;;;;5040532;28;20208;-25
2023/07/11 09:00:56;;;;;;;5.57;2.08;;;26.40;98.60;;;;;;5025136;28;20208;-25
2023/07/11 09:03:30;;;;;;;6.05;2.70;;;26.50;98.60;;;;;;5027106;28;20205;-25
2023/07/11 09:06:05;;;;;;;7.45;2.55;;;26.60;98.60;;;;;;5033415;28;20196;-25
2023/07/11 09:08:36;;;;;;;5.88;2.10;;;26.60;98.70;;;;;;5028898;28;20329;-25
2023/07/11 09:11:36;;;;;;;5.40;1.90;;;26.70;98.60;;;;;;5037664;28;20255;-25
2023/07/11 09:14:15;;;;;;;5.25;2.70;;;26.80;98.60;;;;;;5030873;28;20497;-26
2023/07/11 09:17:10;;;;;;;6.75;2.20;;;26.80;98.60;;;;;;5040475;28;20337;-25
2023/07/11 09:19:56;;;;;;;4.43;1.88;;;26.80;98.60;;;;;;5029253;28;20239;-25
2023/07/11 09:22:44;;;;;;;5.80;2.42;;;26.90;98.70;;;;;;5029662;28;20702;-25
2023/07/11 09:25:35;;;;;;;6.13;2.33;;;27.00;98.70;;;;;;5025644;28;20204;-25
2023/07/11 09:28:11;;;;;;;6.40;2.47;;;27.10;98.70;;;;;;5029705;28;20227;-25
2023/07/11 09:30:48;;;;;;;6.22;2.38;;;27.10;98.50;;;;;;5026663;28;20267;-24
2023/07/11 09:33:23;;;;;;;5.20;2.28;;;27.20;98.60;;;;;;5034320;28;20211;-25
2023/07/11 09:35:51;;;;;;;5.57;2.20;;;27.20;98.50;;;;;;5031664;28;20204;-25
2023/07/11 09:38:23;;;;;;;4.68;2.20;;;27.20;98.50;;;;;;5032758;28;20813;-25
2023/07/11 09:41:14;;;;;;;6.97;2.60;;;27.20;98.30;;;;;;5034719;28;20281;-25
2023/07/11 09:43:47;;;;;;;6.05;2.63;;;27.30;98.40;;;;;;5032464;28;20209;-25
2023/07/11 09:46:20;;;;;;;8.93;2.58;;;27.40;98.60;;;;;;5027051;28;20698;-24
2023/07/11 09:48:54;;;;;;;8.27;2.60;;;27.40;98.10;;;;;;5031203;28;20220;-25
2023/07/11 09:51:36;;;;;;;7.47;2.40;;;27.40;98.10;;;;;;5029558;28;20205;-25
2023/07/11 09:54:19;;;;;;;4.15;1.92;;;27.50;98.00;;;;;;5029382;28;20887;-25
2023/07/11 09:56:48;;;;;;;5.65;2.33;;;27.50;98.20;;;;;;5040922;28;20212;-25
2023/07/11 09:59:18;;;;;;;5.15;2.30;;;27.60;98.30;;;;;;5033923;28;20270;-25
2023/07/11 10:01:58;;;;;;;6.30;2.40;;;27.60;98.30;;;;;;5029685;28;20200;-25
2023/07/11 10:04:31;;;;;;;7.80;2.60;;;27.70;98.10;;;;;;5037120;28;20236;-25
2023/07/11 10:07:01;;;;;;;6.22;2.40;;;27.70;98.10;;;;;;5043988;28;20208;-25
2023/07/11 10:09:36;;;;;;;6.15;2.75;;;27.70;98.10;;;;;;5038156;28;20213;-31
2023/07/11 10:12:20;;;;;;;4.60;2.40;;;27.80;98.10;;;;;;5027765;28;20208;-31
2023/07/11 10:14:52;;;;;;;5.15;2.15;;;27.80;98.20;;;;;;5044868;28;21005;-31
2023/07/11 10:17:26;;;;;;;3.90;2.30;;;27.80;98.20;;;;;;5047218;28;20204;-31
2023/07/11 10:20:00;;;;;;;5.65;2.20;;;27.90;98.30;;;;;;5040672;28;20204;-31
2023/07/11 10:22:51;;;;;;;3.80;2.22;;;28.00;98.40;;;;;;5047621;28;20698;-31
2023/07/11 10:25:21;;;;;;;4.38;2.50;;;28.10;98.10;;;;;;5033606;28;20841;-31
2023/07/11 10:27:54;;;;;;;5.20;2.30;;;28.10;98.30;;;;;;5030410;28;20212;-31
2023/07/11 10:30:29;;;;;;;5.50;2.35;;;28.20;98.20;;;;;;5040698;28;20787;-31
2023/07/11 10:33:24;;;;;;;8.45;2.28;;;28.30;98.20;;;;;;5048701;28;20258;-31
2023/07/11 10:36:22;;;;;;;4.43;2.58;;;28.40;97.80;;;;;;5046798;28;20287;-31
2023/07/11 10:39:05;;;;;;;3.83;2.22;;;28.40;98.20;;;;;;5026855;28;20268;-31
2023/07/11 10:41:39;;;;;;;6.10;2.45;;;28.50;98.20;;;;;;5041659;28;20208;-31
2023/07/11 10:44:17;;;;;;;3.67;2.50;;;28.50;98.20;;;;;;5035903;28;20216;-31
2023/07/11 10:46:53;;;;;;;9.15;2.63;;;28.50;98.20;;;;;;5030106;28;20311;-31
2023/07/11 10:49:45;;;;;;;5.05;2.60;;;28.60;98.10;;;;;;5031933;28;20216;-31
2023/07/11 10:52:27;;;;;;;5.78;2.50;;;28.70;98.20;;;;;;5046273;28;20705;-31
2023/07/11 10:55:01;;;;;;;7.47;2.63;;;28.70;98.10;;;;;;5048114;28;20736;-30
2023/07/11 10:57:31;;;;;;;5.05;2.67;;;28.80;98.20;;;;;;5045908;28;20764;-31
2023/07/11 11:00:36;;;;;;;6.57;2.83;;;28.80;98.10;;;;;;5037914;28;20338;-31
2023/07/11 11:03:25;;;;;;;3.50;2.10;;;28.80;97.80;;;;;;5033107;28;20205;-30
2023/07/11 11:06:26;;;;;;;8.82;3.00;;;28.90;98.00;;;;;;5025867;28;20213;-25
2023/07/11 11:09:07;;;;;;;6.32;2.45;;;28.90;97.10;;;;;;5043142;28;20216;-25
2023/07/11 11:12:01;;;;;;;8.95;3.00;;;28.80;97.60;;;;;;5047555;28;20289;-25
2023/07/11 11:14:52;;;;;;;5.60;2.60;;;28.90;97.80;;;;;;5043223;28;20208;-31
2023/07/11 11:17:29;;;;;;;4.40;2.60;;;28.90;97.50;;;;;;5041451;28;20205;-31
2023/07/11 11:20:26;;;;;;;3.72;2.60;;;28.90;97.60;;;;;;5038585;28;20553;-31
2023/07/11 11:23:20;;;;;;;9.38;2.25;;;29.00;97.60;;;;;;5041770;28;20221;-30
2023/07/11 11:26:16;;;;;;;5.72;2.47;;;29.00;97.70;;;;;;5037653;28;20550;-30
2023/07/11 11:29:16;;;;;;;6.60;2.63;;;29.10;97.60;;;;;;5035668;28;20220;-24
2023/07/11 11:32:09;;;;;;;4.65;2.15;;;29.10;97.60;;;;;;5042565;28;20228;-24
2023/07/11 11:35:14;;;;;;;8.35;2.92;;;29.20;97.20;;;;;;5029521;28;20604;-24
2023/07/11 11:37:55;;;;;;;3.63;2.53;;;29.20;97.40;;;;;;5014808;28;20294;-30
2023/07/11 11:40:25;;;;;;;4.40;2.92;;;29.20;97.30;;;;;;5039338;28;20277;-30
2023/07/11 11:43:09;;;;;;;4.50;2.65;;;29.20;97.30;;;;;;5034824;28;20209;-24
2023/07/11 11:45:42;;;;;;;5.28;2.70;;;29.30;97.30;;;;;;5026959;28;20618;-24
2023/07/11 11:48:39;;;;;;;5.97;2.60;;;29.30;97.10;;;;;;5044431;28;20715;-24
2023/07/11 11:51:15;;;;;;;4.72;2.58;;;29.40;97.20;;;;;;5037134;28;20211;-24
2023/07/11 11:54:00;;;;;;;9.13;2.90;;;29.40;97.30;;;;;;5038163;28;20576;-24
2023/07/11 11:56:28;;;;;;;4.65;2.67;;;29.40;96.80;;;;;;5026221;28;20197;-24
2023/07/11 11:59:16;;;;;;;7.00;2.78;;;29.40;97.00;;;;;;5025860;28;20376;-24
2023/07/11 12:01:53;;;;;;;4.25;3.17;;;29.40;96.70;;;;;;5009551;28;20228;-24
2023/07/11 12:04:29;;;;;;;6.97;2.63;;;29.50;97.00;;;;;;5032379;28;20302;-24
2023/07/11 12:07:15;;;;;;;4.07;2.67;;;29.50;97.10;;;;;;5030396;28;20219;-24
2023/07/11 12:09:45;;;;;;;5.93;2.70;;;29.60;97.00;;;;;;5030343;28;20212;-24
2023/07/11 12:12:25;;;;;;;6.45;2.60;;;29.60;97.10;;;;;;5042053;28;20303;-24
2023/07/11 12:14:52;;;;;;;7.07;2.55;;;29.60;96.90;;;;;;5039661;28;20574;-24
2023/07/11 12:17:31;;;;;;;6.68;2.92;;;29.70;97.00;;;;;;5029247;28;20589;-24
2023/07/11 12:20:02;;;;;;;5.85;2.28;;;29.80;97.00;;;;;;5044066;28;20641;-24
2023/07/11 12:22:49;;;;;;;4.82;2.50;;;29.80;96.90;;;;;;5035932;28;20628;-24
2023/07/11 12:25:22;;;;;;;3.72;2.45;;;29.90;96.90;;;;;;5026681;28;20627;-24
2023/07/11 12:28:00;;;;;;;4.43;2.60;;;29.90;97.00;;;;;;5025649;28;20223;-24
2023/07/11 12:30:42;;;;;;;4.85;2.55;;;30.00;97.00;;;;;;5025745;28;20220;-24
2023/07/11 12:33:27;;;;;;;7.28;2.60;;;30.00;97.00;;;;;;5026872;28;20212;-24
2023/07/11 12:36:05;;;;;;;4.47;2.30;;;30.10;96.70;;;;;;5025635;28;20766;-24
2023/07/11 12:39:09;;;;;;;3.95;2.80;;;30.10;96.90;;;;;;5024837;28;20258;-24
2023/07/11 12:41:52;;;;;;;7.78;3.05;;;30.20;96.90;;;;;;5015800;28;20638;-24
2023/07/11 12:44:22;;;;;;;5.53;2.75;;;30.20;96.50;;;;;;5024613;28;20216;-24
2023/07/11 12:46:51;;;;;;;3.97;2.67;;;30.30;96.80;;;;;;5025929;28;20201;-24
2023/07/11 12:49:26;;;;;;;4.35;2.50;;;30.30;96.70;;;;;;5037180;28;20596;-24
2023/07/11 12:52:11;;;;;;;3.97;2.38;;;30.40;96.80;;;;;;5044790;28;20689;-24
2023/07/11 12:54:42;;;;;;;5.57;2.50;;;30.50;96.30;;;;;;5037332;28;20236;-24
2023/07/11 12:57:18;;;;;;;6.75;2.70;;;30.50;96.80;;;;;;5024321;28;20220;-24
2023/07/11 12:59:46;;;;;;;4.28;2.33;;;30.50;96.80;;;;;;5027311;28;20205;-24
2023/07/11 13:02:16;;;;;;;5.63;2.60;;;30.60;96.80;;;;;;5025589;28;20213;-24
2023/07/11 13:04:48;;;;;;;3.08;2.35;;;30.60;96.50;;;;;;5041339;28;20211;-24
2023/07/11 13:07:24;;;;;;;4.80;2.17;;;30.70;96.60;;;;;;5030066;28;20702;-24
2023/07/11 13:09:54;;;;;;;3.88;2.13;;;30.70;96.50;;;;;;5024417;28;20213;-24
2023/07/11 13:12:26;;;;;;;5.63;2.50;;;30.80;96.40;;;;;;5029992;28;20196;-24
2023/07/11 13:14:55;;;;;;;4.88;2.35;;;30.80;96.50;;;;;;5027669;28;20212;-24
2023/07/11 13:17:25;;;;;;;5.15;2.30;;;30.80;96.40;;;;;;5035577;28;20200;-24
2023/07/11 13:20:00;;;;;;;4.22;2.13;;;30.80;96.10;;;;;;5029712;28;20207;-24